Time;durP1;ratioP1;P1;durP2;ratioP2;P2;SDS_P1;SDS_P2;PMS_P1;PMS_P2;Temp;Humidity;BMP_temperature;BMP_pressure;BME280_temperature;BME280_humidity;BME280_pressure;Samples;Min_cycle;Max_cycle;Signal;HPM_P1;HPM_P2
2022/09/22 00:01:37;;;;;;;6.78;3.50;;;;;;;-143.48;72.71;80015.53;5076544;28;20024;-42
2022/09/22 00:04:06;;;;;;;6.40;3.30;;;;;;;-143.48;72.75;80025.47;5075883;28;20027;-42
2022/09/22 00:06:40;;;;;;;6.95;3.58;;;;;;;-143.48;72.68;80035.38;5076218;28;20536;-45
2022/09/22 00:09:10;;;;;;;9.35;3.40;;;;;;;-143.48;72.42;80029.44;5075734;28;20032;-45
2022/09/22 00:11:39;;;;;;;6.85;3.20;;;;;;;-143.48;72.21;80023.47;5075826;28;20029;-44
2022/09/22 00:14:26;;;;;;;6.80;3.42;;;;;;;-143.48;72.14;80035.38;5075974;28;20102;-43
2022/09/22 00:16:57;;;;;;;6.82;3.20;;;;;;;-143.48;72.37;80035.38;5075548;28;20044;-43
2022/09/22 00:19:30;;;;;;;6.90;3.65;;;;;;;-143.48;72.87;80019.50;5075594;28;20027;-43
2022/09/22 00:21:55;;;;;;;9.32;4.25;;;;;;;-143.48;72.62;80023.47;5075337;28;20028;-43
2022/09/22 00:24:23;;;;;;;8.45;3.70;;;;;;;-143.48;72.45;80029.44;5075385;28;20039;-43
2022/09/22 00:26:50;;;;;;;10.75;3.65;;;;;;;-143.48;72.76;80031.41;5075488;28;20485;-44
2022/09/22 00:29:16;;;;;;;8.75;3.97;;;;;;;-143.48;72.74;80035.38;5075965;28;20031;-44
2022/09/22 00:31:42;;;;;;;8.95;3.80;;;;;;;-143.48;73.00;80041.34;5075605;28;20040;-45
2022/09/22 00:34:13;;;;;;;8.43;3.42;;;;;;;-143.48;73.04;80047.28;5075344;28;20017;-45
2022/09/22 00:36:38;;;;;;;5.75;3.78;;;;;;;-143.48;73.31;80039.34;5075251;28;20029;-45
2022/09/22 00:39:04;;;;;;;5.85;3.40;;;;;;;-143.48;72.69;80043.31;5075588;28;20027;-43
2022/09/22 00:41:34;;;;;;;7.05;3.33;;;;;;;-143.48;72.56;80047.28;5075183;28;20096;-42
2022/09/22 00:44:21;;;;;;;5.70;3.38;;;;;;;-143.48;72.53;80051.25;5057177;28;20425;-44
2022/09/22 00:46:57;;;;;;;12.40;4.47;;;;;;;-143.48;73.06;80059.19;5075645;28;20486;-45
2022/09/22 00:49:49;;;;;;;10.95;4.10;;;;;;;-143.48;72.91;80059.19;5075042;28;20043;-44
2022/09/22 00:52:37;;;;;;;10.48;5.82;;;;;;;-143.48;73.11;80059.19;5075325;28;20387;-43
2022/09/22 00:55:07;;;;;;;9.73;4.60;;;;;;;-143.48;73.72;80051.25;5075236;28;20027;-45
2022/09/22 00:57:35;;;;;;;10.90;5.00;;;;;;;-143.48;73.00;80059.19;5074837;28;20028;-43
2022/09/22 01:00:03;;;;;;;7.78;4.38;;;;;;;-143.48;73.11;80053.22;5074580;28;20024;-44
2022/09/22 01:02:29;;;;;;;13.52;4.50;;;;;;;-143.48;73.23;80047.28;5074401;28;20141;-44
2022/09/22 01:04:54;;;;;;;10.13;5.07;;;;;;;-143.48;73.27;80051.25;5074612;28;20499;-44
2022/09/22 01:07:22;;;;;;;10.07;4.75;;;;;;;-143.48;73.11;80051.25;5075103;28;20025;-45
2022/09/22 01:09:48;;;;;;;8.38;4.72;;;;;;;-143.48;73.24;80041.34;5074588;28;20036;-43
2022/09/22 01:12:13;;;;;;;12.82;5.07;;;;;;;-143.48;73.61;80055.22;5056621;28;20029;-44
2022/09/22 01:15:19;;;;;;;9.68;5.22;;;;;;;-143.48;73.40;80055.22;5074455;28;20411;-44
2022/09/22 01:18:01;;;;;;;12.38;4.45;;;;;;;-143.48;73.21;80055.22;5074485;28;20382;-43
2022/09/22 01:20:45;;;;;;;10.23;4.83;;;;;;;-143.48;73.92;80051.25;5074396;28;20028;-44
2022/09/22 01:23:29;;;;;;;12.27;5.18;;;;;;;-143.48;73.76;80059.19;5074347;28;20032;-45
2022/09/22 01:25:54;;;;;;;11.88;4.60;;;;;;;-143.48;73.50;80059.19;5075061;28;20108;-45
2022/09/22 01:28:31;;;;;;;12.55;4.70;;;;;;;-143.48;73.50;80063.16;5074776;28;20456;-44
2022/09/22 01:31:11;;;;;;;7.90;4.90;;;;;;;-143.48;72.82;80071.09;5074526;28;20501;-44
2022/09/22 01:33:44;;;;;;;10.00;5.03;;;;;;;-143.48;73.70;80065.13;5074480;28;20016;-46
2022/09/22 01:36:09;;;;;;;;;;;;;;;-143.48;73.30;80065.13;5056538;28;20024;-43
2022/09/22 01:38:59;;;;;;;11.63;5.10;;;;;;;-143.48;73.59;80061.16;5074325;28;19912;-47
2022/09/22 01:42:04;;;;;;;11.15;5.20;;;;;;;-143.48;73.06;80063.16;5074623;28;20259;-45
2022/09/22 01:44:37;;;;;;;10.65;5.57;;;;;;;-143.48;73.43;80057.19;5055934;28;20032;-43
2022/09/22 01:47:18;;;;;;;;;;;;;;;-143.48;73.19;80059.19;5074928;28;20107;-43
2022/09/22 01:49:51;;;;;;;8.07;5.45;;;;;;;-143.48;73.75;80063.16;5073865;28;19909;-45
2022/09/22 01:52:20;;;;;;;;;;;;;;;-143.48;73.99;80071.09;5073689;28;20028;-44
2022/09/22 01:54:52;;;;;;;12.20;6.15;;;;;;;-143.48;73.70;80065.13;5074021;28;19912;-42
2022/09/22 01:57:27;;;;;;;10.50;5.87;;;;;;;-143.48;73.89;80059.19;5073805;28;20039;-43
2022/09/22 02:00:01;;;;;;;12.88;5.80;;;;;;;-143.48;73.88;80063.16;5074444;28;20086;-42
2022/09/22 02:02:46;;;;;;;13.65;6.15;;;;;;;-143.48;73.44;80059.19;5073906;28;20451;-43
2022/09/22 02:05:17;;;;;;;11.68;5.90;;;;;;;-143.48;73.36;80047.28;5055769;28;20028;-44
2022/09/22 02:07:47;;;;;;;14.20;6.20;;;;;;;-143.48;73.22;80059.19;5073668;28;20099;-44
2022/09/22 02:10:16;;;;;;;15.13;6.07;;;;;;;-143.48;73.56;80059.19;5055635;28;20471;-43
2022/09/22 02:12:42;;;;;;;13.60;6.20;;;;;;;-143.48;73.34;80067.13;5073562;28;20017;-44
2022/09/22 02:15:58;;;;;;;12.13;5.90;;;;;;;-143.48;73.59;80059.19;5073595;28;20106;-42
2022/09/22 02:17:57;;;;;;;11.55;5.85;;;;;;;-143.48;73.16;80065.13;5073290;28;20033;-44
2022/09/22 02:20:25;;;;;;;9.88;5.88;;;;;;;-143.48;73.86;80063.16;5073477;28;20039;-45
2022/09/22 02:22:51;;;;;;;11.30;5.45;;;;;;;-143.48;73.96;80063.16;5073603;28;20471;-44
2022/09/22 02:25:16;;;;;;;10.00;5.72;;;;;;;-143.48;73.03;80057.19;5073667;28;20024;-45
2022/09/22 02:27:44;;;;;;;14.00;5.70;;;;;;;-143.48;73.19;80063.16;5073718;28;20139;-44
2022/09/22 02:30:11;;;;;;;12.02;5.93;;;;;;;-143.48;73.26;80067.13;5073450;28;20395;-44
2022/09/22 02:32:42;;;;;;;13.65;5.88;;;;;;;-143.48;73.66;80063.16;5073573;28;20020;-42
2022/09/22 02:35:08;;;;;;;13.15;5.90;;;;;;;-143.48;73.49;80055.22;5073310;28;20069;-45
2022/09/22 02:37:59;;;;;;;9.65;5.90;;;;;;;-143.48;73.26;80055.22;5055303;28;20494;-44
2022/09/22 02:41:03;;;;;;;9.50;5.90;;;;;;;-143.48;73.75;80077.03;5073844;28;20067;-45
2022/09/22 02:43:39;;;;;;;11.02;6.07;;;;;;;-143.48;74.05;80069.09;5025634;28;20517;-44
2022/09/22 02:46:12;;;;;;;15.45;6.35;;;;;;;-143.48;74.56;80067.13;5073522;28;20402;-45
2022/09/22 02:48:41;;;;;;;10.02;6.20;;;;;;;-143.48;74.11;80073.06;5073284;28;20103;-42
2022/09/22 02:51:08;;;;;;;13.15;6.45;;;;;;;-143.48;74.46;80086.97;5055248;28;20028;-43
2022/09/22 02:53:35;;;;;;;11.50;6.45;;;;;;;-143.48;74.75;80096.88;5055520;28;20021;-42
2022/09/22 02:56:03;;;;;;;12.27;6.03;;;;;;;-143.48;74.65;80098.88;5056081;28;20548;-42
2022/09/22 02:58:28;;;;;;;12.00;6.20;;;;;;;-143.48;75.02;80090.94;5055171;28;20035;-44
2022/09/22 03:00:54;;;;;;;15.80;6.28;;;;;;;-143.48;74.88;80083.00;5055159;28;20103;-44
2022/09/22 03:03:20;;;;;;;10.40;6.35;;;;;;;-143.48;74.60;80084.97;5055845;28;20025;-43
2022/09/22 03:05:45;;;;;;;9.88;5.47;;;;;;;-143.48;74.13;80079.03;5077405;28;20024;-44
2022/09/22 03:08:11;;;;;;;10.05;5.75;;;;;;;-143.48;73.69;80090.94;5059071;28;20033;-44
2022/09/22 03:10:37;;;;;;;12.70;6.00;;;;;;;-143.48;74.15;80088.94;5059065;28;20035;-45
2022/09/22 03:13:02;;;;;;;11.80;5.72;;;;;;;-143.48;74.26;80088.94;5058918;28;20470;-43
2022/09/22 03:15:28;;;;;;;9.95;5.90;;;;;;;-143.48;73.93;80079.03;5055629;28;20488;-42
2022/09/22 03:17:54;;;;;;;9.95;5.93;;;;;;;-143.48;73.93;80098.88;5056339;28;20364;-43
2022/09/22 03:20:20;;;;;;;14.95;6.20;;;;;;;-143.48;74.02;80106.81;5055608;28;20021;-43
2022/09/22 03:22:46;;;;;;;10.02;5.50;;;;;;;-143.48;74.80;80096.88;5055401;28;20070;-42
2022/09/22 03:25:12;;;;;;;12.02;6.05;;;;;;;-143.48;74.58;80098.88;5055357;28;20356;-45
2022/09/22 03:27:38;;;;;;;16.50;5.85;;;;;;;-143.48;74.19;80092.91;5056791;28;20029;-42
2022/09/22 03:30:06;;;;;;;12.45;6.32;;;;;;;-143.48;74.43;80098.88;5055312;28;20090;-44
2022/09/22 03:32:31;;;;;;;13.00;6.25;;;;;;;-143.48;74.19;80102.84;5056438;28;20028;-43
2022/09/22 03:34:57;;;;;;;12.93;6.55;;;;;;;-143.48;73.80;80102.84;5057116;28;20025;-43
2022/09/22 03:37:24;;;;;;;11.10;5.90;;;;;;;-143.48;74.12;80106.81;5055199;28;20534;-46
2022/09/22 03:39:53;;;;;;;11.65;6.20;;;;;;;-143.48;73.88;80104.81;5055102;28;20024;-44
2022/09/22 03:42:19;;;;;;;11.18;5.70;;;;;;;-143.48;73.50;80098.88;5055066;28;20387;-44
2022/09/22 03:44:44;;;;;;;13.40;6.22;;;;;;;-143.48;73.97;80086.97;5055097;28;20028;-45
2022/09/22 03:47:09;;;;;;;12.73;5.70;;;;;;;-143.48;73.61;80098.88;5054969;28;20020;-45
2022/09/22 03:49:34;;;;;;;11.52;5.97;;;;;;;-143.48;74.13;80098.88;5056401;28;20039;-44
2022/09/22 03:52:00;;;;;;;13.52;5.85;;;;;;;-143.48;73.89;80090.94;5054929;28;20025;-42
2022/09/22 03:54:26;;;;;;;10.80;5.57;;;;;;;-143.48;73.63;80094.91;5054971;28;20025;-42
2022/09/22 03:56:52;;;;;;;9.98;5.90;;;;;;;-143.48;74.22;80102.84;5054820;28;20071;-43
2022/09/22 03:59:17;;;;;;;11.15;5.85;;;;;;;-143.48;74.05;80106.81;5056614;28;20186;-44
2022/09/22 04:01:43;;;;;;;11.05;5.90;;;;;;;-143.48;73.61;80098.88;5054708;28;20027;-44
2022/09/22 04:04:08;;;;;;;11.02;5.80;;;;;;;-143.48;73.51;80106.81;5054563;28;20040;-43
2022/09/22 04:06:34;;;;;;;12.50;6.60;;;;;;;-143.48;73.54;80102.84;5056208;28;20017;-45
2022/09/22 04:09:00;;;;;;;12.00;5.95;;;;;;;-143.48;73.77;80104.81;5054863;28;20028;-45
2022/09/22 04:11:25;;;;;;;9.85;5.45;;;;;;;-143.48;73.35;80106.81;5054557;28;20450;-45
2022/09/22 04:13:50;;;;;;;11.23;5.55;;;;;;;-143.48;73.67;80106.81;5058188;28;20102;-45
2022/09/22 04:16:17;;;;;;;11.18;6.00;;;;;;;-143.48;73.81;80108.78;5074962;28;20135;-53
2022/09/22 04:18:42;;;;;;;10.80;5.55;;;;;;;-143.48;74.12;80110.78;5076256;28;20447;-44
2022/09/22 04:21:08;;;;;;;11.45;5.53;;;;;;;-143.48;73.93;80108.78;5076235;28;20031;-44
2022/09/22 04:23:35;;;;;;;9.05;5.57;;;;;;;-143.48;73.64;80098.88;5057534;28;20115;-44
2022/09/22 04:26:01;;;;;;;9.30;5.75;;;;;;;-143.48;73.40;80104.81;5076214;28;20460;-44
2022/09/22 04:28:28;;;;;;;10.32;5.63;;;;;;;-143.48;73.32;80108.78;5075607;28;20024;-44
2022/09/22 04:30:53;;;;;;;11.07;5.55;;;;;;;-143.48;73.24;80114.75;5057618;28;20391;-44
2022/09/22 04:33:19;;;;;;;8.45;5.40;;;;;;;-143.48;74.00;80116.72;5075387;28;20021;-45
2022/09/22 04:35:44;;;;;;;13.13;5.55;;;;;;;-143.48;73.48;80126.66;5075272;28;20479;-44
2022/09/22 04:38:09;;;;;;;7.82;5.40;;;;;;;-143.48;73.37;80132.59;5075274;28;20055;-45
2022/09/22 04:40:36;;;;;;;11.15;5.63;;;;;;;-143.48;73.84;80118.72;5075241;28;20089;-42
2022/09/22 04:43:01;;;;;;;10.93;5.53;;;;;;;-143.48;73.61;80122.69;5075458;28;20419;-44
2022/09/22 04:45:27;;;;;;;10.15;5.95;;;;;;;-143.48;73.64;80120.69;5075232;28;20024;-44
2022/09/22 04:47:52;;;;;;;9.98;5.57;;;;;;;-143.48;73.44;80120.69;5057208;28;20024;-42
2022/09/22 04:50:20;;;;;;;13.18;6.88;;;;;;;-143.48;73.66;80118.72;5057130;28;20028;-45
2022/09/22 04:52:47;;;;;;;10.15;5.10;;;;;;;-143.48;73.61;80122.69;5056949;28;20024;-45
2022/09/22 04:55:14;;;;;;;11.10;5.30;;;;;;;-143.48;74.09;80138.56;5074790;28;20062;-43
2022/09/22 04:57:40;;;;;;;8.93;4.88;;;;;;;-143.48;74.21;80138.56;5075413;28;20024;-45
2022/09/22 05:00:06;;;;;;;10.57;5.28;;;;;;;-143.48;74.17;80142.53;5074704;28;20052;-46
2022/09/22 05:02:33;;;;;;;15.18;5.35;;;;;;;-143.48;74.47;80142.53;5074850;28;20025;-44
2022/09/22 05:04:58;;;;;;;11.20;5.40;;;;;;;-143.48;74.41;80144.50;5074117;28;20106;-43
2022/09/22 05:07:24;;;;;;;12.73;5.43;;;;;;;-143.48;73.76;80132.59;5074143;28;20502;-45
2022/09/22 05:09:49;;;;;;;11.60;5.20;;;;;;;-143.48;73.67;80132.59;5075214;28;20103;-44
2022/09/22 05:12:14;;;;;;;7.22;4.80;;;;;;;-143.48;73.43;80128.63;5056558;28;20115;-44
2022/09/22 05:14:41;;;;;;;10.77;4.95;;;;;;;-143.48;73.83;80122.69;5074188;28;20132;-44
2022/09/22 05:17:06;;;;;;;9.23;4.90;;;;;;;-143.48;73.25;80130.63;5074570;28;20494;-45
2022/09/22 05:19:31;;;;;;;11.55;5.03;;;;;;;-143.48;73.45;80142.53;5074515;28;20020;-45
2022/09/22 05:21:57;;;;;;;8.98;5.38;;;;;;;-143.48;74.04;80142.53;5074514;28;20031;-44
2022/09/22 05:24:22;;;;;;;9.65;5.35;;;;;;;-143.48;74.03;80126.66;5074120;28;20464;-46
2022/09/22 05:26:48;;;;;;;7.45;4.97;;;;;;;-143.48;74.01;80122.69;5056114;28;20386;-45
2022/09/22 05:29:14;;;;;;;11.35;5.50;;;;;;;-143.48;73.58;80126.66;5074330;28;20028;-44
2022/09/22 05:31:40;;;;;;;7.57;4.88;;;;;;;-143.48;73.72;80134.59;5074379;28;20459;-46
2022/09/22 05:34:05;;;;;;;13.63;5.43;;;;;;;-143.48;73.72;80134.59;5056464;28;20024;-45
2022/09/22 05:36:31;;;;;;;7.47;4.70;;;;;;;-143.48;73.73;80122.69;5056155;28;20111;-43
2022/09/22 05:39:00;;;;;;;13.27;5.13;;;;;;;-143.48;74.35;80128.63;5074640;28;20074;-43
2022/09/22 05:41:27;;;;;;;10.00;4.93;;;;;;;-143.48;73.56;80108.78;5071594;28;20043;-43
2022/09/22 05:43:53;;;;;;;8.00;5.15;;;;;;;-143.48;72.74;80106.81;5056007;28;20112;-44
2022/09/22 05:46:18;;;;;;;13.23;4.80;;;;;;;-143.48;72.86;80104.81;5073966;28;20439;-44
2022/09/22 05:48:43;;;;;;;10.02;5.40;;;;;;;-143.48;72.64;80100.84;5074267;28;20029;-44
2022/09/22 05:51:09;;;;;;;11.77;5.18;;;;;;;-143.48;72.82;80102.84;5073985;28;20108;-43
2022/09/22 05:53:34;;;;;;;14.55;5.80;;;;;;;-143.48;72.72;80102.84;5055340;28;20025;-42
2022/09/22 05:56:00;;;;;;;14.95;6.40;;;;;;;-143.48;72.90;80094.91;5073219;28;20059;-44
2022/09/22 05:58:25;;;;;;;12.05;5.90;;;;;;;-143.48;72.95;80098.88;5073000;28;20136;-43
2022/09/22 06:00:50;;;;;;;15.57;5.50;;;;;;;-143.48;72.70;80071.09;5074274;28;20456;-44
2022/09/22 06:03:16;;;;;;;13.75;5.72;;;;;;;-143.48;72.36;80084.97;5073338;28;20025;-45
2022/09/22 06:05:43;;;;;;;11.82;5.15;;;;;;;-143.48;73.01;80079.03;5074318;28;20020;-46
2022/09/22 06:08:09;;;;;;;11.85;5.78;;;;;;;-143.48;72.45;80051.25;5073554;28;20024;-45
2022/09/22 06:10:37;;;;;;;9.95;5.10;;;;;;;-143.48;71.83;80057.19;5074219;28;20024;-46
2022/09/22 06:13:07;;;;;;;10.18;5.55;;;;;;;-143.48;71.98;80053.22;5073418;28;20016;-44
2022/09/22 06:15:34;;;;;;;9.27;5.00;;;;;;;-143.48;72.08;80049.28;5051931;28;20057;-43
2022/09/22 06:18:05;;;;;;;9.15;5.45;;;;;;;-143.48;71.16;80041.34;5054366;28;20456;-44
2022/09/22 06:20:31;;;;;;;9.00;4.63;;;;;;;-143.48;71.37;80013.56;5053707;28;20356;-45
2022/09/22 06:22:57;;;;;;;11.18;5.78;;;;;;;-143.48;70.47;80009.59;5053623;28;20025;-44
2022/09/22 06:25:22;;;;;;;11.98;5.40;;;;;;;-143.48;70.68;80017.53;5053090;28;20040;-44
2022/09/22 06:28:06;;;;;;;12.02;5.47;;;;;;;-143.48;70.96;80021.50;5053376;28;20029;-45
2022/09/22 06:30:36;;;;;;;9.77;4.90;;;;;;;-143.48;71.31;79997.69;5053507;28;20533;-45
2022/09/22 06:33:02;;;;;;;15.00;5.25;;;;;;;-143.48;70.98;80007.59;5053703;28;20075;-50
2022/09/22 06:35:34;;;;;;;10.40;5.00;;;;;;;-143.48;71.54;80011.56;5053500;28;20021;-45
2022/09/22 06:37:59;;;;;;;9.50;5.32;;;;;;;-143.48;71.46;79997.69;5053127;28;20081;-46
2022/09/22 06:40:25;;;;;;;10.75;5.28;;;;;;;-143.48;71.43;79979.81;5053746;28;20039;-45
2022/09/22 06:42:58;;;;;;;12.68;5.30;;;;;;;-143.48;70.79;79942.13;5053789;28;20028;-43
2022/09/22 06:45:26;;;;;;;;;;;;;;;-143.48;69.20;79916.34;5054008;28;20116;-43
2022/09/22 06:47:57;;;;;;;9.15;4.88;;;;;;;-143.48;68.52;79912.38;5053508;28;19908;-46
2022/09/22 06:50:22;;;;;;;9.20;5.00;;;;;;;-143.48;68.23;79894.50;5053113;28;20017;-44
2022/09/22 06:52:50;;;;;;;8.43;4.93;;;;;;;-143.48;68.58;79874.69;5053062;28;20111;-43
2022/09/22 06:55:19;;;;;;;9.63;5.15;;;;;;;-143.48;69.09;79886.59;5053183;28;20408;-44
2022/09/22 06:57:45;;;;;;;11.38;5.38;;;;;;;-143.48;68.98;79894.50;5052781;28;20044;-44
2022/09/22 07:00:11;;;;;;;14.88;5.65;;;;;;;-143.48;70.37;79892.53;5053139;28;20108;-43
2022/09/22 07:02:36;;;;;;;12.18;5.35;;;;;;;-143.48;69.54;79880.63;5053212;28;20075;-45
2022/09/22 07:05:01;;;;;;;10.70;5.85;;;;;;;-143.48;69.41;79872.69;5052862;28;20025;-44
2022/09/22 07:07:30;;;;;;;8.93;5.25;;;;;;;-143.48;69.21;79860.78;5053151;28;20329;-43
2022/09/22 07:09:56;;;;;;;12.68;5.60;;;;;;;-143.48;69.49;79835.00;5053345;28;20503;-44
2022/09/22 07:12:21;;;;;;;9.65;5.45;;;;;;;-143.48;68.72;79819.13;5052726;28;20108;-45
2022/09/22 07:14:48;;;;;;;11.07;5.65;;;;;;;-143.48;68.53;79789.38;5051350;28;20455;-44
2022/09/22 07:17:17;;;;;;;10.13;5.20;;;;;;;-143.48;67.84;79775.47;5051511;28;20040;-44
2022/09/22 07:19:42;;;;;;;10.77;5.75;;;;;;;-143.48;66.60;79688.19;5051522;28;20028;-44
2022/09/22 07:22:08;;;;;;;10.63;5.32;;;;;;;-143.48;50.57;79033.56;5052879;28;20491;-44
2022/09/22 07:24:33;;;;;;;12.57;5.60;;;;;;;-143.48;44.48;78797.53;5053044;28;20399;-43
2022/09/22 07:27:03;;;;;;;12.40;5.88;;;;;;;-143.48;41.58;78632.91;5052807;28;20025;-43
2022/09/22 07:29:28;;;;;;;10.20;5.25;;;;;;;-143.48;41.89;78704.31;5053031;28;20384;-43
2022/09/22 07:31:55;;;;;;;8.50;5.20;;;;;;;-143.48;42.41;78738.03;5053375;28;20029;-43
2022/09/22 07:34:20;;;;;;;8.63;5.30;;;;;;;-143.48;40.73;78569.44;5052798;28;20053;-43
2022/09/22 07:36:48;;;;;;;12.82;5.45;;;;;;;-143.48;39.92;78533.75;5051743;28;20100;-45
2022/09/22 07:39:13;;;;;;;11.77;4.93;;;;;;;-143.48;39.58;78529.78;5052834;28;20021;-45
2022/09/22 07:41:42;;;;;;;9.18;5.07;;;;;;;-143.48;42.37;78779.69;5052643;28;20021;-43
2022/09/22 07:46:53;;;;;;;12.57;5.40;;;;;;;-143.48;40.59;78603.16;5053500;28;20040;-42
2022/09/22 07:49:20;;;;;;;14.38;5.40;;;;;;;-143.48;39.97;78543.66;5052862;28;20399;-43
2022/09/22 07:51:47;;;;;;;10.70;5.00;;;;;;;-143.48;41.46;78672.56;5055535;28;20029;-45
2022/09/22 07:54:12;;;;;;;12.82;5.28;;;;;;;-143.48;40.55;78515.91;5055785;28;20049;-43
2022/09/22 07:56:43;;;;;;;12.60;4.70;;;;;;;-143.48;42.96;78793.56;5055790;28;20056;-44
2022/09/22 07:59:10;;;;;;;10.10;4.90;;;;;;;-143.48;43.93;78789.59;5055642;28;20356;-43
2022/09/22 08:01:42;;;;;;;12.95;5.50;;;;;;;-143.48;40.82;78577.38;5054176;28;20032;-44
2022/09/22 08:04:11;;;;;;;10.70;4.88;;;;;;;-143.48;38.04;78365.16;5055250;28;20066;-45
2022/09/22 08:06:36;;;;;;;16.13;5.07;;;;;;;-143.48;36.15;78271.97;5054396;28;20361;-46
2022/09/22 08:09:03;;;;;;;12.52;4.72;;;;;;;-143.48;36.99;78339.38;5055408;28;20021;-46
2022/09/22 08:11:30;;;;;;;10.05;4.85;;;;;;;-143.48;37.90;78456.41;5055506;28;20017;-44
2022/09/22 08:14:00;;;;;;;8.27;4.00;;;;;;;-143.48;35.88;78262.03;5055726;28;20036;-42
2022/09/22 08:16:29;;;;;;;9.65;4.78;;;;;;;-143.48;36.43;78319.56;5075418;28;20028;-39
2022/09/22 08:18:56;;;;;;;6.93;3.75;;;;;;;-143.48;35.59;78242.22;5075785;28;20020;-41
2022/09/22 08:21:25;;;;;;;10.10;3.70;;;;;;;-143.48;35.55;78309.63;5076267;28;20422;-41
2022/09/22 08:23:52;;;;;;;8.07;3.75;;;;;;;-143.48;35.58;78238.25;5075776;28;20036;-41
2022/09/22 08:26:20;;;;;;;13.43;3.72;;;;;;;-143.48;34.41;78178.75;5076121;28;20024;-42
2022/09/22 08:28:51;;;;;;;7.60;3.85;;;;;;;-143.48;34.45;78131.16;5075909;28;20103;-42
2022/09/22 08:31:18;;;;;;;10.68;4.00;;;;;;;-143.48;35.94;78345.34;5075706;28;20021;-42
2022/09/22 08:33:44;;;;;;;8.48;3.95;;;;;;;-143.48;35.19;78208.50;5075236;28;20086;-41
2022/09/22 08:36:10;;;;;;;7.45;3.60;;;;;;;-143.48;33.37;78045.88;5075693;28;20020;-42
2022/09/22 08:38:36;;;;;;;8.52;3.65;;;;;;;-143.48;33.46;78002.25;5075337;28;20390;-42
2022/09/22 08:41:39;;;;;;;10.35;3.33;;;;;;;-143.48;33.43;77940.78;5075234;28;20028;-40
2022/09/22 08:44:09;;;;;;;7.38;3.33;;;;;;;-143.48;33.62;78091.50;5053858;28;20497;-41
2022/09/22 08:46:38;;;;;;;8.77;3.75;;;;;;;-143.48;33.16;78035.97;5075593;28;20020;-40
2022/09/22 08:52:31;;;;;;;9.82;3.47;;;;;;;-143.48;32.16;77915.00;5075027;28;20120;-43
2022/09/22 08:54:58;;;;;;;7.88;3.28;;;;;;;-143.48;32.27;77909.06;5075237;28;20024;-42
2022/09/22 08:57:43;;;;;;;9.30;3.10;;;;;;;-143.48;33.55;78051.84;5075196;28;20038;-42
2022/09/22 09:00:17;;;;;;;8.77;3.03;;;;;;;-143.48;31.58;77893.19;5075134;28;20025;-42
2022/09/22 09:02:55;;;;;;;10.43;3.00;;;;;;;-143.48;31.82;77857.50;5074607;28;20115;-41
2022/09/22 09:05:44;;;;;;;10.13;3.20;;;;;;;-143.48;31.55;77903.09;5074696;28;20027;-40
2022/09/22 09:08:52;;;;;;;7.75;2.83;;;;;;;-143.48;31.07;77801.97;5074890;28;20020;-39
2022/09/22 09:11:39;;;;;;;6.68;2.92;;;;;;;-143.48;30.60;77845.59;5075160;28;20379;-40
2022/09/22 09:14:20;;;;;;;9.30;2.80;;;;;;;-143.48;31.89;77976.47;5074819;28;20020;-41
2022/09/22 09:16:51;;;;;;;9.30;2.63;;;;;;;-143.48;31.38;77926.91;5074532;28;20047;-37
2022/09/22 09:19:27;;;;;;;10.35;2.47;;;;;;;-143.48;30.63;77792.06;5074842;28;20024;-37
2022/09/22 09:21:57;;;;;;;10.20;2.30;;;;;;;-143.48;32.11;78022.09;5075215;28;20408;-40
2022/09/22 09:24:44;;;;;;;8.23;2.60;;;;;;;-143.48;34.25;78210.47;5056298;28;20483;-39
2022/09/22 09:27:17;;;;;;;6.38;2.30;;;;;;;-143.48;32.27;77954.66;5074497;28;20061;-39
2022/09/22 09:29:59;;;;;;;6.10;2.47;;;;;;;-143.48;33.37;78065.72;5074321;28;20016;-40
2022/09/22 09:32:56;;;;;;;6.22;2.25;;;;;;;-143.48;33.79;78154.94;5074357;28;20020;-40
2022/09/22 09:35:31;;;;;;;10.60;2.67;;;;;;;-143.48;35.16;78210.47;5074341;28;20162;-39
2022/09/22 09:37:58;;;;;;;9.10;2.20;;;;;;;-143.48;36.41;78349.31;5074224;28;20031;-38
2022/09/22 09:40:23;;;;;;;7.18;2.42;;;;;;;-143.48;35.51;78281.88;5073972;28;20059;-42
2022/09/22 09:43:02;;;;;;;9.65;2.60;;;;;;;-143.48;35.52;78289.81;5073945;28;20020;-42
2022/09/22 09:45:35;;;;;;;7.45;2.30;;;;;;;-143.48;35.87;78333.44;5057620;28;20422;-39
2022/09/22 09:48:35;;;;;;;9.40;2.30;;;;;;;-143.48;35.91;78339.38;5074236;28;20025;-40
2022/09/22 09:51:04;;;;;;;8.13;2.13;;;;;;;-143.48;36.15;78315.59;5056201;28;20556;-37
2022/09/22 09:53:36;;;;;;;7.35;1.98;;;;;;;-143.48;35.05;78269.97;5074052;28;20055;-40
2022/09/22 09:56:01;;;;;;;6.03;1.85;;;;;;;-143.48;34.94;78359.22;5072337;28;20073;-40
2022/09/22 10:01:13;;;;;;;6.20;1.83;;;;;;;-143.48;34.46;78313.59;5073144;28;20564;-42
2022/09/22 10:03:53;;;;;;;7.43;1.92;;;;;;;-143.48;34.94;78448.47;5073258;28;20387;-42
2022/09/22 10:06:24;;;;;;;5.88;1.95;;;;;;;-143.48;35.41;78404.84;5072236;28;20032;-40
2022/09/22 10:08:50;;;;;;;7.55;2.15;;;;;;;-143.48;35.53;78339.38;5073487;28;20019;-41
2022/09/22 10:11:28;;;;;;;6.75;1.90;;;;;;;-143.48;35.55;78448.47;5073847;28;20390;-41
2022/09/22 10:13:55;;;;;;;5.43;1.80;;;;;;;-143.48;35.56;78474.25;5054753;28;20021;-40
2022/09/22 10:16:22;;;;;;;10.02;2.30;;;;;;;-143.48;35.77;78511.94;5073671;28;20086;-39
2022/09/22 10:19:09;;;;;;;5.22;2.10;;;;;;;-143.48;35.23;78474.25;5073692;28;20012;-40
2022/09/22 10:21:36;;;;;;;9.93;2.00;;;;;;;-143.48;36.48;78523.81;5056056;28;20517;-42
2022/09/22 10:24:21;;;;;;;7.28;2.20;;;;;;;-143.48;36.60;78500.03;5073585;28;20029;-39
2022/09/22 10:26:56;;;;;;;7.10;2.30;;;;;;;-143.48;36.21;78390.94;5073848;28;20033;-40
2022/09/22 10:29:23;;;;;;;3.72;1.85;;;;;;;-143.48;35.16;78361.19;5073611;28;20029;-40
2022/09/22 10:32:06;;;;;;;4.22;1.70;;;;;;;-143.48;34.83;78462.34;5073173;28;20028;-40
2022/09/22 10:34:40;;;;;;;9.65;2.42;;;;;;;-143.48;35.25;78472.25;5073283;28;20032;-40
2022/09/22 10:37:10;;;;;;;5.78;2.05;;;;;;;-143.48;34.90;78420.69;5056607;28;20081;-41
2022/09/22 10:39:43;;;;;;;5.65;2.00;;;;;;;-143.48;35.48;78416.72;5073495;28;20025;-42
2022/09/22 10:42:27;;;;;;;7.60;2.15;;;;;;;-143.48;35.76;78406.81;5055330;28;20040;-41
2022/09/22 10:44:57;;;;;;;8.02;2.10;;;;;;;-143.48;35.27;78416.72;5055236;28;20020;-39
2022/09/22 10:47:38;;;;;;;9.38;2.08;;;;;;;-143.48;34.88;78347.31;5073345;28;20027;-41
2022/09/22 10:50:44;;;;;;;7.45;1.88;;;;;;;-143.48;34.36;78337.41;5073707;28;20481;-42
2022/09/22 10:53:27;;;;;;;6.20;1.80;;;;;;;-143.48;34.71;78321.53;5073047;28;20020;-41
2022/09/22 10:56:21;;;;;;;7.10;2.30;;;;;;;-143.48;34.24;78283.84;5072775;28;20089;-41
2022/09/22 10:58:49;;;;;;;7.50;2.13;;;;;;;-143.48;34.89;78347.31;5073034;28;20107;-41
2022/09/22 11:01:26;;;;;;;9.32;2.50;;;;;;;-143.48;35.46;78357.22;5073107;28;20041;-41
2022/09/22 11:04:17;;;;;;;6.72;2.53;;;;;;;-143.48;35.19;78381.03;5072814;28;20032;-37
2022/09/22 11:12:58;;;;;;;5.50;2.10;;;;;;;-143.48;36.13;78363.19;5073406;28;20082;-42
2022/09/22 11:16:02;;;;;;;4.72;1.98;;;;;;;-143.48;34.78;78283.84;5072704;28;20052;-41
2022/09/22 11:18:39;;;;;;;;;;;;;;;-143.48;33.90;78305.66;5022522;28;20111;-38
2022/09/22 11:21:13;;;;;;;4.55;1.83;;;;;;;-143.48;34.14;78367.16;5072682;28;19909;-39
2022/09/22 11:23:42;;;;;;;3.95;1.67;;;;;;;-143.48;34.04;78331.44;5072693;28;20029;-40
2022/09/22 11:26:44;;;;;;;8.70;2.10;;;;;;;-143.48;33.54;78268.00;5076421;28;20548;-41
2022/09/22 11:29:37;;;;;;;5.35;2.10;;;;;;;-143.48;33.37;78216.44;5076760;28;20032;-39
2022/09/22 11:32:08;;;;;;;;;;;;;;;-143.48;34.25;78307.66;5076980;28;20058;-38
2022/09/22 11:34:50;;;;;;;7.45;2.10;;;;;;;-143.48;33.86;78244.19;5076633;28;19918;-41
2022/09/22 11:37:26;;;;;;;9.07;2.53;;;;;;;-143.48;35.49;78381.03;5076899;28;20036;-41
2022/09/22 11:40:25;;;;;;;6.95;2.65;;;;;;;-143.48;34.77;78240.22;5076582;28;20085;-40
2022/09/22 11:43:03;;;;;;;6.18;3.00;;;;;;;-143.48;34.40;78258.06;5076337;28;20035;-39
2022/09/22 11:45:46;;;;;;;9.20;2.20;;;;;;;-143.48;34.12;78327.50;5076831;28;20090;-38
2022/09/22 11:48:37;;;;;;;4.82;2.10;;;;;;;-143.48;34.65;78202.56;5058252;28;20052;-40